DABCD ULLI-EIKN

Flight info

Callsign DABCD
Flight time 3h 3m
Altitude 40000
Route TURAL1D TURAL DCT RESMO DCT NEBSI DCT NILUG DCT VEMAS DCT DANKO DCT VAXIT DCT REKNA DCT GOMOT DCT HAVEN DCT BLACA DCT BELZU DCT ERNAN DCT CON
Aircraft CL60/M-SBDE1E2E3FGHIJ1J4J5J7M3RWXYZ/LB1V1D1

Departure

Time 2026-04-09 19:37
Airport Pulkovo Airport (ULLI)

Arrival

Time 2026-04-09 22:41
Airport Ireland West Airport Knock (EIKN)
Time Latitude Longitude Altitude Speed Heading
2026-04-09 19:20 59.79876 30.29011 84 ft 0 kts 200°
2026-04-09 19:31 59.79875 30.29011 84 ft 1 kts 200°
2026-04-09 19:31 59.79847 30.28978 84 ft 4 kts 250°
2026-04-09 19:31 59.79857 30.28890 84 ft 8 kts 286°
2026-04-09 19:32 59.79908 30.28832 84 ft 11 kts 15°
2026-04-09 19:32 59.79998 30.28885 84 ft 17 kts 17°
2026-04-09 19:32 59.80087 30.28924 84 ft 10 kts 326°
2026-04-09 19:32 59.80122 30.28705 84 ft 19 kts 286°
2026-04-09 19:33 59.80163 30.28439 84 ft 8 kts 287°
2026-04-09 19:33 59.80188 30.28285 84 ft 14 kts 288°
2026-04-09 19:33 59.80219 30.28049 84 ft 19 kts 288°
2026-04-09 19:33 59.80263 30.27769 84 ft 22 kts 286°
2026-04-09 19:34 59.80289 30.27593 84 ft 21 kts 285°
2026-04-09 19:34 59.80344 30.27226 84 ft 30 kts 286°
2026-04-09 19:34 59.80400 30.26844 84 ft 25 kts 286°
2026-04-09 19:34 59.80448 30.26576 84 ft 14 kts 314°
2026-04-09 19:35 59.80526 30.26592 84 ft 5 kts 17°
2026-04-09 19:35 59.80530 30.26595 84 ft 0 kts 17°
2026-04-09 19:35 59.80531 30.26595 84 ft 0 kts 17°
2026-04-09 19:36 59.80534 30.26597 84 ft 3 kts 17°
2026-04-09 19:36 59.80608 30.26640 84 ft 14 kts 17°
2026-04-09 19:36 59.80647 30.26738 84 ft 5 kts 103°
2026-04-09 19:36 59.80542 30.27442 84 ft 113 kts 104°
2026-04-09 19:37 59.80258 30.29335 509 ft 161 kts 101°
2026-04-09 19:37 59.79979 30.31425 1770 ft 160 kts 101°
2026-04-09 19:37 59.79684 30.33494 2929 ft 163 kts 102°
2026-04-09 19:37 59.79366 30.35719 3423 ft 177 kts 103°
2026-04-09 19:38 59.79039 30.37920 3502 ft 156 kts 103°
2026-04-09 19:38 59.78720 30.40183 3780 ft 184 kts 96°
2026-04-09 19:38 59.78422 30.42674 4749 ft 192 kts 102°
2026-04-09 19:38 59.78044 30.45196 5763 ft 197 kts 102°
2026-04-09 19:39 59.77649 30.47796 6844 ft 207 kts 102°
2026-04-09 19:39 59.77236 30.50520 8210 ft 212 kts 102°
2026-04-09 19:39 59.76904 30.53495 9052 ft 230 kts 88°
2026-04-09 19:39 59.77270 30.56451 9353 ft 231 kts 57°
2026-04-09 19:40 59.78513 30.58531 9396 ft 235 kts 23°
2026-04-09 19:40 59.80045 30.59447 9394 ft 222 kts 18°
2026-04-09 19:40 59.81495 30.60268 9398 ft 216 kts 19°
2026-04-09 19:40 59.82968 30.60917 9392 ft 218 kts
2026-04-09 19:41 59.84527 30.60430 9580 ft 248 kts 340°
2026-04-09 19:41 59.85927 30.58372 10674 ft 261 kts 313°
2026-04-09 19:41 59.86773 30.55049 11428 ft 285 kts 289°
2026-04-09 19:41 59.87339 30.51159 12344 ft 295 kts 288°
2026-04-09 19:42 59.87703 30.47111 13354 ft 303 kts 271°
2026-04-09 19:42 59.87488 30.42938 14275 ft 310 kts 259°
2026-04-09 19:42 59.86897 30.38795 15080 ft 319 kts 252°
2026-04-09 19:42 59.86178 30.34590 15843 ft 328 kts 251°
2026-04-09 19:43 59.85434 30.30232 16641 ft 335 kts 251°
2026-04-09 19:43 59.84683 30.25842 17435 ft 340 kts 251°
2026-04-09 19:43 59.83921 30.21399 18216 ft 345 kts 251°
2026-04-09 19:43 59.83140 30.16845 18982 ft 349 kts 251°
2026-04-09 19:44 59.82357 30.12295 19690 ft 354 kts 251°
2026-04-09 19:44 59.81551 30.07612 20348 ft 359 kts 251°
2026-04-09 19:44 59.80735 30.02893 21003 ft 365 kts 251°
2026-04-09 19:44 59.79908 29.98115 21606 ft 370 kts 251°
2026-04-09 19:45 59.79057 29.93206 22223 ft 375 kts 251°
2026-04-09 19:45 59.78200 29.88280 22877 ft 382 kts 250°
2026-04-09 19:45 59.77328 29.83285 23572 ft 387 kts 250°
2026-04-09 19:45 59.76438 29.78191 24267 ft 392 kts 250°
2026-04-09 19:46 59.75554 29.73147 24967 ft 395 kts 250°
2026-04-09 19:46 59.74643 29.67967 25629 ft 400 kts 250°
2026-04-09 19:46 59.73732 29.62792 26268 ft 404 kts 250°
2026-04-09 19:46 59.72796 29.57499 26878 ft 409 kts 250°
2026-04-09 19:47 59.71835 29.52071 27477 ft 413 kts 250°
2026-04-09 19:47 59.70869 29.46638 28040 ft 418 kts 250°
2026-04-09 19:47 59.69888 29.41128 28587 ft 422 kts 250°
2026-04-09 19:47 59.68895 29.35571 29150 ft 426 kts 250°
2026-04-09 19:48 59.67894 29.29984 29632 ft 431 kts 249°
2026-04-09 19:48 59.66859 29.24227 30090 ft 435 kts 249°
2026-04-09 19:48 59.65834 29.18542 30574 ft 439 kts 249°
2026-04-09 19:48 59.64794 29.12790 31020 ft 443 kts 249°
2026-04-09 19:49 59.63755 29.07058 31453 ft 446 kts 249°
2026-04-09 19:49 59.62705 29.01285 31878 ft 449 kts 249°
2026-04-09 19:49 59.61643 28.95463 32281 ft 452 kts 249°
2026-04-09 19:49 59.60581 28.89658 32633 ft 455 kts 249°
2026-04-09 19:50 59.59509 28.83819 33020 ft 457 kts 249°
2026-04-09 19:50 59.58421 28.77904 33380 ft 459 kts 249°
2026-04-09 19:50 59.57330 28.71994 33704 ft 461 kts 249°
2026-04-09 19:50 59.56224 28.66029 34032 ft 464 kts 249°
2026-04-09 19:51 59.55127 28.60119 34351 ft 466 kts 249°
2026-04-09 19:51 59.54009 28.54122 34708 ft 466 kts 249°
2026-04-09 19:51 59.52899 28.48186 35062 ft 466 kts 249°
2026-04-09 19:51 59.51774 28.42184 35419 ft 465 kts 249°
2026-04-09 19:52 59.50656 28.36237 35724 ft 463 kts 249°
2026-04-09 19:52 59.49533 28.30281 36020 ft 461 kts 248°
2026-04-09 19:52 59.48407 28.24334 36263 ft 461 kts 248°
2026-04-09 19:52 59.47292 28.18454 36526 ft 459 kts 248°
2026-04-09 19:53 59.46176 28.12596 36776 ft 457 kts 248°
2026-04-09 19:53 59.45045 28.06703 37031 ft 456 kts 249°
2026-04-09 19:53 59.44095 28.00750 37259 ft 455 kts 256°
2026-04-09 19:53 59.43534 27.94680 37451 ft 454 kts 264°
2026-04-09 19:54 59.43226 27.88524 37599 ft 455 kts 265°
2026-04-09 19:54 59.42934 27.82400 37766 ft 456 kts 266°
2026-04-09 19:54 59.42632 27.76182 37944 ft 455 kts 265°
2026-04-09 19:54 59.42332 27.70068 38118 ft 455 kts 265°
2026-04-09 19:55 59.42025 27.63885 38312 ft 454 kts 265°
2026-04-09 19:55 59.41716 27.57725 38465 ft 453 kts 265°
2026-04-09 19:55 59.41407 27.51626 38625 ft 452 kts 265°
2026-04-09 19:55 59.41093 27.45478 38788 ft 452 kts 265°
2026-04-09 19:56 59.40777 27.39373 38944 ft 451 kts 265°
2026-04-09 19:56 59.40459 27.33266 39079 ft 451 kts 265°
2026-04-09 19:56 59.40134 27.27088 39258 ft 451 kts 265°
2026-04-09 19:56 59.39813 27.21030 39446 ft 450 kts 265°
2026-04-09 19:57 59.39483 27.14882 39621 ft 449 kts 265°
2026-04-09 19:57 59.39163 27.08839 39787 ft 448 kts 265°
2026-04-09 19:57 59.38829 27.02737 39930 ft 448 kts 265°
2026-04-09 19:57 59.38498 26.96734 40057 ft 448 kts 265°
2026-04-09 19:58 59.37817 26.84545 40306 ft 449 kts 265°
2026-04-09 19:58 59.37474 26.78491 40416 ft 450 kts 265°
2026-04-09 19:58 59.37125 26.72375 40396 ft 454 kts 265°
2026-04-09 19:59 59.36407 26.59959 40392 ft 460 kts 265°
2026-04-09 19:59 59.35663 26.47366 40378 ft 466 kts 265°
2026-04-09 20:00 59.34908 26.34689 40377 ft 472 kts 264°
2026-04-09 20:00 59.34127 26.21838 40378 ft 477 kts 264°
2026-04-09 20:01 59.33321 26.08814 40381 ft 482 kts 264°
2026-04-09 20:01 59.32502 25.95794 40383 ft 485 kts 264°
2026-04-09 20:02 59.31663 25.82680 40376 ft 488 kts 264°
2026-04-09 20:02 59.30803 25.69441 40369 ft 491 kts 264°
2026-04-09 20:03 59.29923 25.56232 40379 ft 493 kts 264°
2026-04-09 20:03 59.29033 25.42938 40380 ft 495 kts 264°
2026-04-09 20:04 59.28115 25.29451 40381 ft 497 kts 263°
2026-04-09 20:04 59.27191 25.16078 40393 ft 499 kts 263°
2026-04-09 20:05 59.26245 25.02612 40404 ft 501 kts 263°
2026-04-09 20:05 59.25286 24.89052 40394 ft 504 kts 263°
2026-04-09 20:06 59.24299 24.75449 40397 ft 506 kts 263°
2026-04-09 20:06 59.23294 24.61801 40401 ft 509 kts 263°
2026-04-09 20:07 59.22269 24.48087 40394 ft 511 kts 263°
2026-04-09 20:07 59.21234 24.34439 40389 ft 513 kts 262°
2026-04-09 20:08 59.20174 24.20652 40392 ft 513 kts 262°
2026-04-09 20:08 59.19104 24.06926 40391 ft 512 kts 262°
2026-04-09 20:09 59.18018 23.93198 40400 ft 512 kts 262°
2026-04-09 20:09 59.16920 23.79506 40403 ft 511 kts 263°
2026-04-09 20:10 59.15808 23.65834 40403 ft 511 kts 262°
2026-04-09 20:10 59.14685 23.52208 40414 ft 511 kts 262°
2026-04-09 20:11 59.13547 23.38571 40407 ft 512 kts 262°
2026-04-09 20:11 59.12394 23.24944 40395 ft 512 kts 262°
2026-04-09 20:12 59.11222 23.11267 40396 ft 512 kts 261°
2026-04-09 20:12 59.10037 22.97626 40389 ft 511 kts 262°
2026-04-09 20:13 59.08843 22.84050 40378 ft 511 kts 262°
2026-04-09 20:13 59.07637 22.70510 40384 ft 511 kts 262°
2026-04-09 20:14 59.06416 22.56967 40382 ft 511 kts 262°
2026-04-09 20:14 59.05169 22.43389 40388 ft 511 kts 262°
2026-04-09 20:15 59.03911 22.29770 40383 ft 510 kts 261°
2026-04-09 20:15 59.02651 22.16279 40385 ft 509 kts 261°
2026-04-09 20:16 59.01378 22.02808 40385 ft 509 kts 261°
2026-04-09 20:16 59.00086 21.89320 40379 ft 509 kts 261°
2026-04-09 20:17 58.98782 21.75849 40388 ft 509 kts 261°
2026-04-09 20:17 58.97463 21.62379 40379 ft 510 kts 261°
2026-04-09 20:18 58.96134 21.48973 40389 ft 509 kts 261°
2026-04-09 20:18 58.94778 21.35454 40370 ft 510 kts 261°
2026-04-09 20:19 58.93348 21.22083 40295 ft 512 kts 251°
2026-04-09 20:19 58.92053 21.15603 39381 ft 523 kts 251°
2026-04-09 20:19 58.90863 21.09189 39321 ft 501 kts 253°
2026-04-09 20:20 58.89922 21.02740 39104 ft 498 kts 257°
2026-04-09 20:20 58.89019 20.96269 38705 ft 498 kts 257°
2026-04-09 20:20 58.88002 20.90019 38696 ft 487 kts 251°
2026-04-09 20:20 58.86703 20.83984 38731 ft 486 kts 247°
2026-04-09 20:21 58.84270 20.71819 38717 ft 491 kts 248°
2026-04-09 20:21 58.82951 20.65752 38592 ft 497 kts 250°
2026-04-09 20:21 58.81366 20.59764 38301 ft 506 kts 238°
2026-04-09 20:22 58.79329 20.54177 37966 ft 507 kts 231°
2026-04-09 20:22 58.77005 20.49231 38012 ft 490 kts 224°
2026-04-09 20:22 58.74637 20.44623 38295 ft 482 kts 229°
2026-04-09 20:22 58.72632 20.39543 38490 ft 478 kts 238°
2026-04-09 20:23 58.71075 20.33941 38785 ft 473 kts 248°
2026-04-09 20:23 58.70002 20.27990 38962 ft 469 kts 258°
2026-04-09 20:23 58.69386 20.15650 39140 ft 466 kts 276°
2026-04-09 20:24 58.69212 20.03143 39308 ft 472 kts 266°
2026-04-09 20:24 58.69060 19.96874 39454 ft 469 kts 275°
2026-04-09 20:24 58.69398 19.90677 39652 ft 464 kts 282°
2026-04-09 20:25 58.69910 19.84559 39835 ft 462 kts 283°
2026-04-09 20:25 58.70406 19.78513 40044 ft 460 kts 282°
2026-04-09 20:25 58.70886 19.72492 40242 ft 458 kts 282°
2026-04-09 20:25 58.71355 19.66432 40394 ft 457 kts 282°
2026-04-09 20:26 58.72262 19.54262 40388 ft 463 kts 281°
2026-04-09 20:26 58.73125 19.41873 40386 ft 469 kts 281°
2026-04-09 20:27 58.73911 19.29322 40371 ft 474 kts 280°
2026-04-09 20:27 58.74675 19.16746 40372 ft 477 kts 279°
2026-04-09 20:28 58.75428 19.04050 40368 ft 480 kts 279°
2026-04-09 20:28 58.76167 18.91252 40373 ft 483 kts 279°
2026-04-09 20:29 58.76895 18.78363 40373 ft 486 kts 279°
2026-04-09 20:29 58.77613 18.65370 40384 ft 489 kts 279°
2026-04-09 20:30 58.78319 18.52296 40384 ft 493 kts 279°
2026-04-09 20:30 58.79015 18.39155 40384 ft 496 kts 279°
2026-04-09 20:31 58.79700 18.25903 40381 ft 499 kts 278°
2026-04-09 20:31 58.80377 18.12533 40378 ft 501 kts 278°
2026-04-09 20:32 58.81031 17.99207 40386 ft 500 kts 278°
2026-04-09 20:32 58.80843 17.85803 40374 ft 505 kts 264°
2026-04-09 20:33 58.79178 17.72668 40376 ft 508 kts 256°
2026-04-09 20:33 58.77157 17.59604 40387 ft 508 kts 256°
2026-04-09 20:34 58.75143 17.46649 40374 ft 507 kts 256°
2026-04-09 20:34 58.73107 17.33643 40375 ft 506 kts 255°
2026-04-09 20:35 58.71064 17.20683 40363 ft 507 kts 255°
2026-04-09 20:35 58.69013 17.07766 40390 ft 506 kts 255°
2026-04-09 20:36 58.66960 16.94929 40375 ft 506 kts 255°
2026-04-09 20:36 58.64873 16.81964 40373 ft 505 kts 255°
2026-04-09 20:37 58.62790 16.69124 40374 ft 505 kts 255°
2026-04-09 20:37 58.60708 16.56333 40376 ft 504 kts 255°
2026-04-09 20:38 58.58588 16.43457 40365 ft 504 kts 255°
2026-04-09 20:38 58.56470 16.30686 40355 ft 503 kts 255°
2026-04-09 20:39 58.54345 16.17959 40360 ft 504 kts 255°
2026-04-09 20:39 58.52194 16.05162 40363 ft 504 kts 255°
2026-04-09 20:40 58.50040 15.92437 40351 ft 504 kts 255°
2026-04-09 20:40 58.47889 15.79821 40349 ft 503 kts 255°
2026-04-09 20:41 58.45716 15.67160 40351 ft 502 kts 255°
2026-04-09 20:41 58.43529 15.54507 40345 ft 502 kts 255°
2026-04-09 20:42 58.41340 15.41928 40344 ft 502 kts 255°
2026-04-09 20:42 58.39120 15.29258 40335 ft 501 kts 253°
2026-04-09 20:43 58.36909 15.16718 40325 ft 501 kts 253°
2026-04-09 20:43 58.34679 15.04166 40317 ft 501 kts 253°
2026-04-09 20:44 58.32453 14.91714 40319 ft 501 kts 254°
2026-04-09 20:44 58.30192 14.79149 40320 ft 500 kts 253°
2026-04-09 20:45 58.27945 14.66747 40318 ft 500 kts 253°
2026-04-09 20:45 58.25681 14.54332 40304 ft 499 kts 253°
2026-04-09 20:46 58.23413 14.41975 40298 ft 498 kts 254°
2026-04-09 20:46 58.21108 14.29498 40293 ft 497 kts 253°
2026-04-09 20:47 58.18817 14.17174 40295 ft 496 kts 253°
2026-04-09 20:47 58.16517 14.04884 40280 ft 496 kts 253°
2026-04-09 20:48 58.14204 13.92603 40247 ft 496 kts 253°
2026-04-09 20:48 58.11874 13.80308 40254 ft 495 kts 253°
2026-04-09 20:49 58.09550 13.68125 40254 ft 494 kts 253°
2026-04-09 20:49 58.07208 13.55920 40250 ft 493 kts 253°
2026-04-09 20:50 58.04876 13.43847 40267 ft 491 kts 253°
2026-04-09 20:50 58.02532 13.31783 40262 ft 491 kts 252°
2026-04-09 20:51 58.00162 13.19660 40247 ft 490 kts 252°
2026-04-09 20:51 57.97796 13.07626 40241 ft 490 kts 252°
2026-04-09 20:52 57.95419 12.95613 40259 ft 489 kts 252°
2026-04-09 20:52 57.93049 12.83710 40233 ft 488 kts 252°
2026-04-09 20:53 57.90661 12.71783 40249 ft 488 kts 252°
2026-04-09 20:53 57.88262 12.59877 40233 ft 486 kts 252°
2026-04-09 20:54 57.85849 12.47969 40246 ft 485 kts 252°
2026-04-09 20:54 57.83432 12.36112 40247 ft 485 kts 252°
2026-04-09 20:55 57.81015 12.24325 40254 ft 485 kts 251°
2026-04-09 20:55 57.79198 12.12258 40247 ft 480 kts 260°
2026-04-09 20:56 57.77718 12.00066 40236 ft 481 kts 259°
2026-04-09 20:56 57.76306 11.88580 40241 ft 480 kts 259°
2026-04-09 20:57 57.74795 11.76400 40249 ft 480 kts 259°
2026-04-09 20:57 57.73279 11.64291 40247 ft 480 kts 259°
2026-04-09 20:58 57.71756 11.52230 40235 ft 480 kts 259°
2026-04-09 20:58 57.70213 11.40121 40228 ft 480 kts 259°
2026-04-09 20:59 57.68641 11.27892 40229 ft 481 kts 258°
2026-04-09 20:59 57.67081 11.15850 40226 ft 481 kts 258°
2026-04-09 21:00 57.65504 11.03782 40218 ft 481 kts 258°
2026-04-09 21:01 57.63117 10.85704 40213 ft 480 kts 257°
2026-04-09 21:01 57.61506 10.73621 40206 ft 480 kts 257°
2026-04-09 21:02 57.59887 10.61572 40202 ft 480 kts 257°
2026-04-09 21:02 57.58252 10.49511 40197 ft 479 kts 257°
2026-04-09 21:03 57.56623 10.37581 40197 ft 479 kts 257°
2026-04-09 21:03 57.54962 10.25510 40194 ft 478 kts 256°
2026-04-09 21:04 57.53306 10.13568 40190 ft 478 kts 256°
2026-04-09 21:04 57.51643 10.01664 40181 ft 478 kts 256°
2026-04-09 21:05 57.49964 9.89743 40171 ft 476 kts 256°
2026-04-09 21:05 57.48287 9.77922 40170 ft 477 kts 256°
2026-04-09 21:06 57.46587 9.66028 40163 ft 474 kts 256°
2026-04-09 21:06 57.44902 9.54328 40160 ft 472 kts 256°
2026-04-09 21:07 57.43208 9.42651 40144 ft 470 kts 255°
2026-04-09 21:07 57.41498 9.30950 40141 ft 470 kts 254°
2026-04-09 21:08 57.39782 9.19290 40127 ft 471 kts 254°
2026-04-09 21:08 57.38045 9.07572 40132 ft 471 kts 254°
2026-04-09 21:09 57.36315 8.95984 40126 ft 470 kts 254°
2026-04-09 21:09 57.34565 8.84346 40106 ft 470 kts 253°
2026-04-09 21:10 57.32812 8.72769 40111 ft 470 kts 253°
2026-04-09 21:10 57.31041 8.61155 40115 ft 470 kts 253°
2026-04-09 21:11 57.29266 8.49598 40100 ft 470 kts 253°
2026-04-09 21:11 57.27470 8.37981 40102 ft 469 kts 253°
2026-04-09 21:12 57.25671 8.26430 40092 ft 468 kts 252°
2026-04-09 21:12 57.23868 8.14925 40067 ft 468 kts 252°
2026-04-09 21:13 57.22057 8.03447 40057 ft 468 kts 252°
2026-04-09 21:13 57.20234 7.91976 40062 ft 467 kts 252°
2026-04-09 21:14 57.18399 7.80509 40046 ft 467 kts 252°
2026-04-09 21:14 57.16566 7.69125 40054 ft 466 kts 251°
2026-04-09 21:15 57.14709 7.57668 40020 ft 467 kts 251°
2026-04-09 21:15 57.12855 7.46305 40024 ft 467 kts 251°
2026-04-09 21:16 57.10992 7.34962 40029 ft 466 kts 250°
2026-04-09 21:16 57.09096 7.23498 40002 ft 467 kts 250°
2026-04-09 21:17 57.07209 7.12160 40011 ft 467 kts 250°
2026-04-09 21:17 57.05306 7.00797 39996 ft 467 kts 250°
2026-04-09 21:18 57.03395 6.89461 39969 ft 468 kts 250°
2026-04-09 21:18 57.01468 6.78103 39980 ft 468 kts 250°
2026-04-09 21:19 56.99330 6.66899 39951 ft 465 kts 242°
2026-04-09 21:19 56.96527 6.56274 39943 ft 465 kts 242°
2026-04-09 21:20 56.93714 6.45658 39949 ft 464 kts 242°
2026-04-09 21:20 56.90905 6.35102 39927 ft 464 kts 242°
2026-04-09 21:21 56.88077 6.24514 39931 ft 464 kts 240°
2026-04-09 21:21 56.85235 6.13926 39924 ft 464 kts 240°
2026-04-09 21:22 56.82410 6.03444 39907 ft 463 kts 240°
2026-04-09 21:22 56.79569 5.92949 39884 ft 463 kts 240°
2026-04-09 21:23 56.76716 5.82456 39897 ft 464 kts 241°
2026-04-09 21:23 56.73834 5.71906 39887 ft 464 kts 241°
2026-04-09 21:24 56.70961 5.61436 39896 ft 464 kts 241°
2026-04-09 21:24 56.68087 5.51008 39897 ft 464 kts 241°
2026-04-09 21:25 56.65192 5.40554 39890 ft 463 kts 241°
2026-04-09 21:25 56.62299 5.30154 39899 ft 462 kts 240°
2026-04-09 21:26 56.59394 5.19756 39875 ft 462 kts 240°
2026-04-09 21:26 56.56503 5.09456 39879 ft 462 kts 240°
2026-04-09 21:27 56.53604 4.99089 39860 ft 463 kts 242°
2026-04-09 21:27 56.51061 4.88396 39879 ft 464 kts 245°
2026-04-09 21:28 56.48555 4.77681 39833 ft 464 kts 245°
2026-04-09 21:28 56.46040 4.66992 39861 ft 464 kts 245°
2026-04-09 21:29 56.43504 4.56286 39867 ft 464 kts 245°
2026-04-09 21:29 56.40964 4.45624 39845 ft 464 kts 245°
2026-04-09 21:30 56.38406 4.34948 39835 ft 465 kts 244°
2026-04-09 21:30 56.35843 4.24308 39859 ft 464 kts 244°
2026-04-09 21:31 56.33264 4.13659 39848 ft 465 kts 244°
2026-04-09 21:31 56.30674 4.03020 39846 ft 464 kts 244°
2026-04-09 21:32 56.28075 3.92396 39830 ft 465 kts 244°
2026-04-09 21:32 56.25468 3.81794 39827 ft 465 kts 244°
2026-04-09 21:33 56.22863 3.71251 39840 ft 466 kts 244°
2026-04-09 21:33 56.20228 3.60641 39835 ft 466 kts 244°
2026-04-09 21:34 56.17906 3.49785 39842 ft 468 kts 254°
2026-04-09 21:34 56.16940 3.38323 39832 ft 471 kts 264°
2026-04-09 21:35 56.16402 3.26586 39836 ft 471 kts 262°
2026-04-09 21:35 56.15850 3.14975 39840 ft 472 kts 263°
2026-04-09 21:36 56.15278 3.03257 39853 ft 472 kts 263°
2026-04-09 21:36 56.14692 2.91563 39830 ft 473 kts 263°
2026-04-09 21:37 56.14093 2.79866 39839 ft 473 kts 263°
2026-04-09 21:37 56.13484 2.68233 39866 ft 472 kts 263°
2026-04-09 21:38 56.12848 2.56458 39864 ft 472 kts 263°
2026-04-09 21:38 56.12216 2.44818 39842 ft 473 kts 263°
2026-04-09 21:39 56.11569 2.33136 39873 ft 473 kts 262°
2026-04-09 21:39 56.10909 2.21448 39868 ft 473 kts 262°
2026-04-09 21:40 56.10235 2.09713 39877 ft 473 kts 262°
2026-04-09 21:40 56.09555 1.98081 39882 ft 473 kts 262°
2026-04-09 21:41 56.08860 1.86401 39857 ft 474 kts 262°
2026-04-09 21:41 56.08150 1.74692 39871 ft 474 kts 262°
2026-04-09 21:42 56.07431 1.63003 39883 ft 474 kts 262°
2026-04-09 21:42 56.06703 1.51324 39871 ft 475 kts 262°
2026-04-09 21:43 56.05957 1.39548 39870 ft 474 kts 262°
2026-04-09 21:43 56.05206 1.27916 39894 ft 475 kts 262°
2026-04-09 21:44 56.04441 1.16209 39897 ft 475 kts 262°
2026-04-09 21:44 56.03665 1.04531 39920 ft 474 kts 262°
2026-04-09 21:45 56.02884 0.92931 39905 ft 474 kts 262°
2026-04-09 21:45 56.02084 0.81235 39896 ft 474 kts 262°
2026-04-09 21:46 56.01281 0.69651 39906 ft 474 kts 262°
2026-04-09 21:46 56.00462 0.58000 39918 ft 473 kts 262°
2026-04-09 21:47 55.99633 0.46387 39914 ft 473 kts 262°
2026-04-09 21:47 55.98792 0.34743 39904 ft 474 kts 261°
2026-04-09 21:48 55.97936 0.23056 39905 ft 474 kts 261°
2026-04-09 21:48 55.97078 0.11500 39898 ft 473 kts 261°
2026-04-09 21:49 55.96209 -0.00060 39906 ft 473 kts 261°
2026-04-09 21:49 55.95324 -0.11671 39920 ft 472 kts 261°
2026-04-09 21:50 55.94431 -0.23242 39930 ft 472 kts 261°
2026-04-09 21:50 55.93533 -0.34732 39922 ft 472 kts 262°
2026-04-09 21:51 55.92618 -0.46296 39911 ft 472 kts 262°
2026-04-09 21:51 55.91417 -0.57766 39921 ft 471 kts 253°
2026-04-09 21:52 55.89458 -0.68846 39936 ft 471 kts 252°
2026-04-09 21:52 55.87465 -0.80056 39940 ft 471 kts 252°
2026-04-09 21:53 55.85489 -0.91116 39927 ft 470 kts 252°
2026-04-09 21:53 55.83499 -1.02189 39936 ft 470 kts 252°
2026-04-09 21:54 55.81508 -1.13220 39941 ft 469 kts 252°
2026-04-09 21:54 55.79507 -1.24233 39949 ft 468 kts 252°
2026-04-09 21:55 55.77506 -1.35187 39958 ft 468 kts 252°
2026-04-09 21:55 55.75506 -1.46073 39959 ft 467 kts 252°
2026-04-09 21:56 55.73488 -1.56994 39966 ft 466 kts 252°
2026-04-09 21:56 55.71465 -1.67883 39951 ft 466 kts 251°
2026-04-09 21:57 55.69408 -1.78886 39948 ft 465 kts 251°
2026-04-09 21:57 55.67354 -1.89816 39938 ft 465 kts 251°
2026-04-09 21:58 55.65292 -2.00723 39956 ft 464 kts 252°
2026-04-09 21:58 55.63240 -2.11521 39943 ft 463 kts 252°
2026-04-09 21:59 55.61166 -2.22364 39951 ft 463 kts 252°
2026-04-09 21:59 55.59097 -2.33130 39958 ft 462 kts 252°
2026-04-09 22:00 55.57033 -2.43804 39965 ft 461 kts 252°
2026-04-09 22:00 55.54929 -2.54631 39978 ft 460 kts 252°
2026-04-09 22:01 55.52843 -2.65300 39972 ft 460 kts 251°
2026-04-09 22:01 55.50738 -2.76010 39988 ft 459 kts 251°
2026-04-09 22:02 55.48630 -2.86673 39982 ft 459 kts 251°
2026-04-09 22:02 55.46521 -2.97325 39987 ft 459 kts 251°
2026-04-09 22:03 55.44057 -3.07678 39983 ft 458 kts 246°
2026-04-09 22:03 55.41425 -3.17876 39986 ft 458 kts 246°
2026-04-09 22:04 55.38773 -3.28121 39987 ft 458 kts 246°
2026-04-09 22:04 55.36124 -3.38326 39993 ft 458 kts 246°
2026-04-09 22:05 55.33474 -3.48466 40001 ft 457 kts 247°
2026-04-09 22:05 55.29498 -3.63655 40006 ft 457 kts 247°
2026-04-09 22:06 55.26803 -3.73902 40014 ft 457 kts 246°
2026-04-09 22:06 55.24124 -3.84043 40012 ft 457 kts 246°
2026-04-09 22:07 55.21439 -3.94162 40005 ft 456 kts 246°
2026-04-09 22:07 55.18754 -4.04238 40008 ft 456 kts 246°
2026-04-09 22:08 55.16072 -4.14260 40008 ft 456 kts 246°
2026-04-09 22:08 55.13377 -4.24310 40007 ft 456 kts 246°
2026-04-09 22:09 55.10677 -4.34357 40042 ft 455 kts 246°
2026-04-09 22:09 55.07980 -4.44358 40045 ft 455 kts 246°
2026-04-09 22:10 55.05277 -4.54346 40066 ft 455 kts 246°
2026-04-09 22:10 55.02558 -4.64363 40076 ft 454 kts 246°
2026-04-09 22:11 54.99853 -4.74295 40088 ft 453 kts 245°
2026-04-09 22:11 54.97131 -4.84249 40085 ft 453 kts 245°
2026-04-09 22:12 54.94414 -4.94151 40099 ft 453 kts 245°
2026-04-09 22:12 54.91696 -5.04008 40096 ft 453 kts 245°
2026-04-09 22:13 54.88950 -5.13928 40113 ft 454 kts 246°
2026-04-09 22:13 54.86195 -5.23841 40120 ft 454 kts 246°
2026-04-09 22:14 54.83437 -5.33725 40120 ft 454 kts 246°
2026-04-09 22:14 54.80667 -5.43609 40123 ft 454 kts 246°
2026-04-09 22:15 54.77915 -5.53392 40122 ft 453 kts 246°
2026-04-09 22:15 54.76513 -5.58359 39885 ft 459 kts 246°
2026-04-09 22:15 54.75112 -5.63317 39336 ft 461 kts 246°
2026-04-09 22:16 54.73698 -5.68306 38781 ft 458 kts 245°
2026-04-09 22:16 54.72288 -5.73263 38163 ft 456 kts 245°
2026-04-09 22:16 54.70887 -5.78185 37599 ft 453 kts 245°
2026-04-09 22:16 54.69494 -5.83072 36963 ft 451 kts 246°
2026-04-09 22:17 54.68106 -5.87929 36380 ft 447 kts 246°
2026-04-09 22:17 54.66728 -5.92744 35776 ft 444 kts 246°
2026-04-09 22:17 54.65366 -5.97490 35183 ft 440 kts 247°
2026-04-09 22:17 54.63990 -6.02276 34601 ft 438 kts 248°
2026-04-09 22:18 54.62641 -6.06963 34021 ft 435 kts 248°
2026-04-09 22:18 54.61297 -6.11619 33463 ft 433 kts 249°
2026-04-09 22:18 54.59959 -6.16249 32868 ft 426 kts 248°
2026-04-09 22:18 54.58639 -6.20798 32302 ft 418 kts 249°
2026-04-09 22:19 54.57341 -6.25263 31727 ft 411 kts 250°
2026-04-09 22:19 54.56079 -6.29597 31102 ft 403 kts 250°
2026-04-09 22:19 54.54822 -6.33906 30478 ft 395 kts 251°
2026-04-09 22:19 54.53593 -6.38107 29986 ft 386 kts 251°
2026-04-09 22:20 54.52382 -6.42251 29460 ft 381 kts 252°
2026-04-09 22:20 54.51202 -6.46280 28999 ft 376 kts 251°
2026-04-09 22:20 54.50024 -6.50301 28481 ft 372 kts 251°
2026-04-09 22:20 54.48877 -6.54208 28008 ft 368 kts 251°
2026-04-09 22:21 54.47712 -6.58169 27512 ft 365 kts 251°
2026-04-09 22:21 54.46574 -6.62033 27021 ft 363 kts 251°
2026-04-09 22:21 54.45433 -6.65902 26543 ft 359 kts 250°
2026-04-09 22:21 54.44295 -6.69752 26062 ft 355 kts 251°
2026-04-09 22:22 54.43180 -6.73521 25587 ft 353 kts 250°
2026-04-09 22:22 54.42075 -6.77249 25115 ft 350 kts 250°
2026-04-09 22:22 54.40985 -6.80922 24655 ft 347 kts 250°
2026-04-09 22:22 54.39878 -6.84645 24176 ft 344 kts 250°
2026-04-09 22:23 54.38791 -6.88296 23725 ft 342 kts 250°
2026-04-09 22:23 54.37722 -6.91885 23267 ft 340 kts 250°
2026-04-09 22:23 54.36647 -6.95486 22823 ft 339 kts 249°
2026-04-09 22:23 54.35566 -6.99103 22367 ft 339 kts 250°
2026-04-09 22:24 54.34491 -7.02695 21932 ft 338 kts 250°
2026-04-09 22:24 54.33427 -7.06245 21482 ft 336 kts 249°
2026-04-09 22:24 54.32358 -7.09801 21045 ft 334 kts 249°
2026-04-09 22:24 54.31304 -7.13306 20609 ft 332 kts 249°
2026-04-09 22:25 54.30244 -7.16823 20151 ft 331 kts 249°
2026-04-09 22:25 54.29191 -7.20313 19713 ft 330 kts 249°
2026-04-09 22:25 54.28137 -7.23799 19278 ft 328 kts 249°
2026-04-09 22:25 54.27094 -7.27249 18845 ft 327 kts 249°
2026-04-09 22:26 54.26060 -7.30657 18430 ft 325 kts 248°
2026-04-09 22:26 54.25019 -7.34086 17990 ft 323 kts 248°
2026-04-09 22:26 54.23984 -7.37494 17567 ft 322 kts 249°
2026-04-09 22:26 54.22951 -7.40888 17144 ft 321 kts 248°
2026-04-09 22:27 54.21929 -7.44241 16710 ft 321 kts 248°
2026-04-09 22:27 54.20893 -7.47637 16292 ft 321 kts 248°
2026-04-09 22:27 54.19861 -7.51016 15865 ft 320 kts 248°
2026-04-09 22:27 54.18839 -7.54352 15440 ft 319 kts 248°
2026-04-09 22:28 54.17807 -7.57726 15003 ft 318 kts 248°
2026-04-09 22:28 54.16790 -7.61041 14590 ft 317 kts 248°
2026-04-09 22:28 54.15777 -7.64335 14180 ft 317 kts 248°
2026-04-09 22:28 54.14744 -7.67693 13743 ft 316 kts 246°
2026-04-09 22:29 54.13718 -7.71019 13322 ft 316 kts 246°
2026-04-09 22:29 54.12710 -7.74284 12902 ft 314 kts 247°
2026-04-09 22:29 54.11688 -7.77589 12483 ft 313 kts 247°
2026-04-09 22:29 54.10682 -7.80841 12074 ft 313 kts 246°
2026-04-09 22:30 54.09671 -7.84105 11657 ft 312 kts 246°
2026-04-09 22:30 54.08655 -7.87378 11236 ft 310 kts 246°
2026-04-09 22:30 54.07638 -7.90650 10819 ft 310 kts 246°
2026-04-09 22:30 54.06636 -7.93871 10410 ft 309 kts 246°
2026-04-09 22:31 54.05627 -7.97108 10005 ft 309 kts 246°
2026-04-09 22:31 54.04633 -8.00296 9605 ft 309 kts 246°
2026-04-09 22:31 54.03641 -8.03469 9207 ft 300 kts 246°
2026-04-09 22:31 54.02676 -8.06549 8816 ft 289 kts 246°
2026-04-09 22:32 54.01751 -8.09495 8439 ft 279 kts 246°
2026-04-09 22:32 54.00852 -8.12360 8057 ft 270 kts 246°
2026-04-09 22:32 53.99989 -8.15105 7714 ft 262 kts 246°
2026-04-09 22:32 53.99147 -8.17787 7376 ft 254 kts 247°
2026-04-09 22:33 53.98333 -8.20426 7044 ft 246 kts 250°
2026-04-09 22:33 53.97788 -8.23137 6711 ft 241 kts 260°
2026-04-09 22:33 53.97436 -8.25940 6378 ft 241 kts 262°
2026-04-09 22:33 53.97123 -8.28729 6058 ft 241 kts 262°
2026-04-09 22:34 53.96812 -8.31497 5805 ft 240 kts 263°
2026-04-09 22:34 53.96498 -8.34300 5579 ft 240 kts 262°
2026-04-09 22:34 53.96184 -8.37086 5382 ft 241 kts 262°
2026-04-09 22:34 53.95869 -8.39850 5173 ft 234 kts 262°
2026-04-09 22:35 53.95568 -8.42490 4988 ft 222 kts 262°
2026-04-09 22:35 53.95279 -8.45019 4811 ft 211 kts 263°
2026-04-09 22:35 53.95007 -8.47409 4617 ft 202 kts 263°
2026-04-09 22:35 53.94744 -8.49715 4381 ft 197 kts 263°
2026-04-09 22:36 53.94484 -8.51997 4118 ft 196 kts 263°
2026-04-09 22:36 53.94225 -8.54265 3851 ft 195 kts 263°
2026-04-09 22:36 53.93966 -8.56527 3582 ft 194 kts 263°
2026-04-09 22:36 53.93713 -8.58722 3329 ft 184 kts 263°
2026-04-09 22:37 53.93476 -8.60767 3082 ft 171 kts 263°
2026-04-09 22:37 53.93252 -8.62700 2842 ft 164 kts 263°
2026-04-09 22:37 53.93039 -8.64555 2614 ft 155 kts 263°
2026-04-09 22:37 53.92838 -8.66267 2392 ft 141 kts 263°
2026-04-09 22:38 53.92648 -8.67917 2202 ft 142 kts 263°
2026-04-09 22:38 53.92459 -8.69562 2015 ft 138 kts 263°
2026-04-09 22:38 53.92289 -8.70980 1910 ft 111 kts 263°
2026-04-09 22:38 53.92138 -8.72246 1686 ft 108 kts 264°
2026-04-09 22:39 53.91999 -8.73455 1549 ft 103 kts 263°
2026-04-09 22:39 53.91845 -8.74671 1397 ft 103 kts 262°
2026-04-09 22:39 53.91701 -8.75887 1257 ft 105 kts 263°
2026-04-09 22:39 53.91571 -8.77117 1089 ft 107 kts 264°
2026-04-09 22:40 53.91439 -8.78354 948 ft 109 kts 258°
2026-04-09 22:40 53.91280 -8.79623 801 ft 110 kts 263°
2026-04-09 22:40 53.91143 -8.80866 682 ft 98 kts 261°
2026-04-09 22:40 53.91028 -8.81852 651 ft 72 kts 261°
2026-04-09 22:41 53.90962 -8.82426 626 ft 19 kts 261°
2026-04-09 22:41 53.91040 -8.82528 623 ft 24 kts 347°
2026-04-09 22:41 53.91160 -8.82574 622 ft 10 kts 327°
2026-04-09 22:41 53.91184 -8.82638 620 ft 5 kts 316°
2026-04-09 22:42 53.91232 -8.82640 620 ft 9 kts 58°
2026-04-09 22:42 53.91220 -8.82526 622 ft 11 kts 86°
2026-04-09 22:42 53.91204 -8.82487 624 ft 9 kts 184°
2026-04-09 22:42 53.91177 -8.82481 625 ft 13 kts 175°
2026-04-09 22:43 53.91183 -8.82508 623 ft 10 kts
2026-04-09 22:43 53.91190 -8.82531 622 ft 0 kts 214°